Charleston Air Force Base-International, SC

5:10 AM EST on January 30, 2015 (GMT -0500)
Charleston Air Force Base-International | Change Station
CLOSE
Current Station
Airport
Location: Charleston,
Elevation: 46 ft
Nearby Weather Stations

Elev 46 ft 32.90 °N, 80.04 °W | Updated 14 minutes ago

Mostly Cloudy
Mostly Cloudy
53 °F
Feels Like 53 °F
N
8
Wind Variable Wind from WSW

Today
High -- | Low -- °F
--% Chance of Precip.
Yesterday
High -- | Low -- °F
Precip. -- in
7:16 AM 5:50 PM
Waxing Gibbous, 81% visible
Pressure 30.03 in
Visibility 10.0 miles
Clouds Few 5000 ft
Scattered Clouds 5500 ft
Mostly Cloudy 7000 ft
Dew Point 44 °F
Humidity 71%
Rainfall 0.00 in
Snow Depth Not available.
UV 0 out of 12
Pollen 2.90 out of 12
Air Quality Not available.
Flu Activity Not available.
METAR KCHS 300956Z 24007KT 10SM FEW050 SCT055 BKN070 12/07 A3003 RMK AO2 RAB38E49 SLP168 P0000 T01170067

More Conditions Fewer Conditions

Pressure 30.03 in
Visibility 10.0 miles
Clouds Few 5000 ft
Scattered Clouds 5500 ft
Mostly Cloudy 7000 ft
Dew Point 44 °F
Humidity 71%
Rainfall 0.00 in
Snow Depth Not available.
UV 0 out of 12
Pollen 2.90 out of 12
Air Quality Not available.
Flu Activity Not available.
METAR KCHS 300956Z 24007KT 10SM FEW050 SCT055 BKN070 12/07 A3003 RMK AO2 RAB38E49 SLP168 P0000 T01170067

More Conditions Fewer Conditions

10-Day Weather Forecast

Almanac

Astronomy

Jan. 30, 2015 Rise Set
Actual Time
Civil Twilight
Nautical Twilight
Astronomical Twilight
Moon
Length of Visible Light
Length of Day
Tomorrow will be .
, % of the Moon is Illuminated

Today's Extremes

State Highs State Lows

Community

WunderPhotos

Upload Photos

1,791,736 photos uploaded!

WunderBlogs® & News

Nearby

Air Quality

  Air Quality AQ Index Pollutant
Not available.

Snow Depth

Station Depth Elevation

Earthquake Activity

City Distance Mag. Time & Date
Minimum magnitude displayed is 2.5.

Coastal Water Temperatures

Place Temperature

Nearby Weather Stations